Cleveland, Utah
Current Conditions -  °F | °C
As of 4:53 AM on Thursday 29 Jan 2015 (Local Time) from KPUC Reporting Station
Clear Clear  
Wind Chill: 36°   Ceiling: Unl
Heat Index: 36°   Visibility: 10mi
Dew Point: 25°   Wind: 3mph
Humidity: 64%   Direction: 320°NW
Pressure: 30.33"   Gusts: NA
Location:  39.35°N, 110.85°W
Report Text: KPUC 291153Z AUTO 32003KT 10SM CLR 02/M04 A3033 RMK AO2 SLP278 T00221039 10039 21006 50001
Loading
Personal Weather Stations






























Interactive Weather Map New forecast layout! Learn more

10-Day Weather Forecast

Advertisements
Track Severe Weather on mobile